Albenga, Italy

1:25 PM CET on February 08, 2016 (GMT +0100)
BETTIHOUSE | | Change Station
CLOSE
Current Station
Personal Weather Station
Location: Garlenda, LIGURIA
Elevation: 174 ft
Nearby Weather Stations

Elev 174 ft 44.03 °N, 8.11 °E | Updated 8 seconds ago

Partly Cloudy
Partly Cloudy
56.7 °F
Feels Like 56.7 °F
N
3.4
Wind Variable Wind from North
Gusts 4.9 mph

Today
High -- | Low -- °F
--% Chance of Precip.
Yesterday
High -- | Low -- °F
Precip. -- in
Pressure 30.01 in
Visibility 6.2 miles
Clouds Few 2600 ft
Dew Point 50 °F
Humidity 78%
Rainfall 0.00 in
Snow Depth Not available.
7:37 AM 5:46 PM
Waning Crescent, 0% visible
METAR LIMU 081155Z 21015KT 9999 FEW026 12/08 Q1016 RMK BKN SCT200 QUK 3 QUL 1 S VIS MAR 35 KM VIS MIN 9999
Pressure 30.01 in
Visibility 6.2 miles
Clouds Few 2600 ft
Dew Point 50 °F
Humidity 78%
Rainfall 0.00 in
Snow Depth Not available.
7:37 AM 5:46 PM
Waning Crescent, 0% visible
METAR LIMU 081155Z 21015KT 9999 FEW026 12/08 Q1016 RMK BKN SCT200 QUK 3 QUL 1 S VIS MAR 35 KM VIS MIN 9999

10-Day Weather Forecast

Almanac

Astronomy

Feb. 08, 2016 Rise Set
Actual Time
Civil Twilight
Nautical Twilight
Astronomical Twilight
Moon
Length of Visible Light
Length of Day
Tomorrow will be .
, % of the Moon is Illuminated

Today's Extremes

Country Highs Country Lows

Community

WunderPhotos

Upload Photos

1,891,426 photos uploaded!

WunderBlog® & News

Nearby

Air Quality

  Air Quality AQ Index Pollutant
Not available.

Snow Depth

Station Depth Elevation

Earthquake Activity

City Distance Mag. Time & Date
Minimum magnitude displayed is 2.5.

Coastal Water Temperatures

Place Temperature

Stations

Nearby Weather Stations

Station Location Temp. Windchill Dew Point Humidity Wind Precip. Elev Updated Type